MP3/FLAC

‹ prev 2018-01-27 next › 391 release(s) · 40,43 GB · filter: day
Release Group Size Files Date ↓
VA-Best_of_Real_Talk_Ent_2003-2010_Vol_2-WEB-2011-ENRAGED ENRAGED 191,38 MB 23 2018-01-27
VA-Selections_2017-WEB-2018-FALCON FALCON 181,78 MB 12 2018-01-27
VA-Best_of_Real_Talk_Ent_2003-2010_Vol_1-WEB-2011-ENRAGED ENRAGED 194,68 MB 24 2018-01-27
Tencode-Mira-WEB-2018-FALCON FALCON 57,94 MB 6 2018-01-27
Snorkle-Comet-WEB-2018-FALCON FALCON 55,49 MB 6 2018-01-27
Yukmouth-Jazzy_Jeff_(feat_Swifty_McVay_and_DFocis)-SINGLE-WEB-2018-ENRAGED ENRAGED 7,49 MB 4 2018-01-27
Orphyd-Totem_Slow_Run-WEB-2018-FALCON FALCON 38,33 MB 5 2018-01-27
Patrick_Hero-Fused_EP-WEB-2018-FALCON FALCON 51,11 MB 6 2018-01-27
KE-Freeze-(KCMTDL050)-WEB-2018-ENSLAVE ENSLAVE 44,30 MB 6 2018-01-27
Call_Super-Arpo-(HTH080)-2LP-FLAC-2017-MLS MLS 878,12 MB 14 2018-01-27
Yotto_You_Are_Me_feat_CAPS-Anything_About_You_(Remixes)-(SSM026)-WEB-2018-ENSLAVE ENSLAVE 34,79 MB 7 2018-01-27
Monkey_Safari-Obscura_EP-WEB-2018-FALCON FALCON 52,99 MB 6 2018-01-27
Las_Von_Feat._Division_One-Willow-WEB-2018-FALCON FALCON 53,90 MB 6 2018-01-27
Hernan_Cerbello-Perceptions-WEB-2018-FALCON FALCON 30,06 MB 5 2018-01-27
VA-Gqom_Oh_The_Sound_Of_Durban_Volume_1-(GQOM002)-WEB-2016-dh dh 223,27 MB 20 2018-01-27
Ferher-Elevate_The_Reason-WEB-2018-FALCON FALCON 62,36 MB 7 2018-01-27
DJ_Fudge-Inkomo_Zikababa_(feat_Phil_D)-(MUAK055)-WEB-2018-ENSLAVE ENSLAVE 52,06 MB 7 2018-01-27
David_Leckenby-Cadence-WEB-2018-FALCON FALCON 46,68 MB 6 2018-01-27
Fouk-Butterfunk-(OUPLD007)-WEB-2017-ENSLAVE ENSLAVE 48,96 MB 7 2018-01-27
Cellski-Legendary-2018-CR CR 81,02 MB 17 2018-01-27
Sky_Balla-Validated-2018-CR CR 130,60 MB 22 2018-01-27
Borgeous_-_House_of_Borgeous-SAT-01-27-2018-TALiON TALiON 97,34 MB 4 2018-01-27
Alexander_Robotnick_and_Lore_J_-_Flying_Fishes_in_the_Sky-(HEM1801)-WEB-2018-XDS XDS 29,23 MB 5 2018-01-27
Ashan_(MX)_and_Adaev_-_Trepidante-(DOPECODE022)-WEB-2018-XDS XDS 14,26 MB 4 2018-01-27
EDX_-_No_Xcuses_362-SAT-01-27-2018-TALiON TALiON 97,34 MB 4 2018-01-27
Uton-XXX-CDR-2004-CRUELTY CRUELTY 63,02 MB 9 2018-01-27
VA-Art_Of_The_Muses-CD-2012-CRUELTY CRUELTY 127,22 MB 17 2018-01-27
Beres_Hammond_Kurt_Riley-My_Kinda_Girl-WEB-2018-JAH JAH 19,49 MB 5 2018-01-27
Boyaka_Smash-Dinsley_Riddim-WEB-2018-JAH JAH 21,22 MB 6 2018-01-27
Dakka_Skanks-Ska_Rhythm-WEB-2018-JAH JAH 36,71 MB 7 2018-01-27
Gyptian-I_Want_To-WEB-2018-JAH JAH 7,73 MB 4 2018-01-27
Gyptian-Need_Your_Touch-WEB-2017-JAH JAH 8,27 MB 4 2018-01-27
Kingston_Express-Kingston_Connection_in_Dub-WEB-2018-JAH JAH 52,77 MB 9 2018-01-27
Luciano-Haul_and_Pull_Up-WEB-2018-JAH JAH 18,33 MB 5 2018-01-27
Max_RubaDub-Style_and_Passion-WEB-2018-JAH JAH 131,32 MB 19 2018-01-27
Mike_and_Rike-Pelerinage_(Instrumental)-WEB-2018-JAH JAH 11,19 MB 4 2018-01-27
Milton_Blake-Trumpet_Sound-WEB-2018-JAH JAH 33,47 MB 7 2018-01-27
The_Dubbeez-Peace_Love_and_Dub-WEB-2018-JAH JAH 108,13 MB 14 2018-01-27
VA-Backspace_Riddim-WEB-2018-JAH JAH 27,74 MB 8 2018-01-27
VA-Bang_Riddim-WEB-2018-JAH JAH 78,25 MB 11 2018-01-27
VA-Clothes_Off_Riddm-WEB-2018-JAH JAH 36,86 MB 8 2018-01-27
VA-D-Roy_Magic_Ladies_Presents_Lovers_Rock-WEB-2018-JAH JAH 113,40 MB 17 2018-01-27
VA-Crapaud_Riddim-WEB-2018-JAH JAH 36,25 MB 10 2018-01-27
VA-Dancehall_Reggae_Top_10_Vol_2-WEB-2017-JAH JAH 67,50 MB 13 2018-01-27
VA-Fiwi_Music_Presents_Old_Skool_Riddim-WEB-2018-JAH JAH 89,52 MB 12 2018-01-27
VA-Dancehall_Reggae_Top_10_Vol_3-WEB-2018-JAH JAH 72,28 MB 14 2018-01-27
VA-Heritage_Riddim-WEB-2017-JAH JAH 38,53 MB 8 2018-01-27
VA-Fiwi_Music_Presents_Uptown_Top_Ranking-WEB-2018-JAH JAH 88,63 MB 14 2018-01-27
VA-Heritage_Riddim-WEB-2018-JAH JAH 43,17 MB 10 2018-01-27
VA-Jamette_Riddim-WEB-2018-JAH JAH 19,01 MB 6 2018-01-27